createdAt,value
2019-05-21T00:01:29.066Z,16.17
2019-05-21T00:03:58.341Z,15.67
2019-05-21T00:06:27.631Z,16.53
2019-05-21T00:08:56.949Z,15.80
2019-05-21T00:11:26.245Z,17.07
2019-05-21T00:13:55.568Z,14.53
2019-05-21T00:16:24.882Z,15.07
2019-05-21T00:18:54.166Z,15.70
2019-05-21T00:21:23.494Z,15.70
2019-05-21T00:23:52.814Z,14.37
2019-05-21T00:26:22.133Z,14.87
2019-05-21T00:29:26.901Z,14.00
2019-05-21T00:32:31.863Z,13.87
2019-05-21T00:35:47.023Z,13.60
2019-05-21T00:38:52.306Z,14.87
2019-05-21T00:41:57.400Z,13.63
2019-05-21T00:44:27.008Z,13.70
2019-05-21T00:46:56.359Z,14.47
2019-05-21T00:49:25.852Z,14.37
2019-05-21T00:52:07.092Z,14.00
2019-05-21T00:54:26.129Z,14.30
2019-05-21T00:56:55.455Z,15.13
2019-05-21T00:59:24.758Z,13.30
2019-05-21T01:01:54.252Z,14.13
2019-05-21T01:04:23.572Z,14.97
2019-05-21T01:06:52.843Z,15.67
2019-05-21T01:09:22.205Z,15.20
2019-05-21T01:11:51.513Z,16.20
2019-05-21T01:14:20.815Z,15.93
2019-05-21T01:16:50.118Z,15.87
2019-05-21T01:19:19.406Z,17.07
2019-05-21T01:21:48.759Z,17.43
2019-05-21T01:24:18.090Z,16.30
2019-05-21T01:26:47.473Z,16.43
2019-05-21T01:29:16.749Z,16.10
2019-05-21T01:31:46.060Z,16.87
2019-05-21T01:34:15.383Z,17.43
2019-05-21T01:36:44.714Z,16.03
2019-05-21T01:39:13.970Z,15.33
2019-05-21T01:41:43.271Z,15.57
2019-05-21T01:44:12.599Z,15.83
2019-05-21T01:46:41.914Z,17.30
2019-05-21T01:49:11.232Z,16.83
2019-05-21T01:51:40.536Z,16.67
2019-05-21T01:54:09.847Z,16.93
2019-05-21T01:56:39.115Z,18.00
2019-05-21T01:59:08.438Z,17.97
2019-05-21T02:01:37.736Z,18.70
2019-05-21T02:04:07.013Z,18.00
2019-05-21T02:06:36.304Z,19.00
2019-05-21T02:09:07.679Z,20.03
2019-05-21T02:11:37.062Z,19.13
2019-05-21T02:14:06.382Z,19.10
2019-05-21T02:16:35.687Z,20.40
2019-05-21T02:19:05.017Z,20.03
2019-05-21T02:21:34.312Z,21.70
2019-05-21T02:24:03.662Z,21.40
2019-05-21T02:26:33.093Z,22.57
2019-05-21T02:29:02.624Z,22.43
2019-05-21T02:31:31.953Z,22.27
2019-05-21T02:34:01.310Z,22.77
2019-05-21T02:36:30.627Z,24.90
2019-05-21T02:38:59.931Z,22.43
2019-05-21T02:41:29.209Z,23.90
2019-05-21T02:43:58.511Z,24.23
2019-05-21T02:46:27.814Z,24.33
2019-05-21T02:48:57.150Z,24.93
2019-05-21T02:51:26.800Z,23.57
2019-05-21T02:53:56.079Z,24.93
2019-05-21T02:56:25.403Z,25.00
2019-05-21T02:58:54.691Z,26.10
2019-05-21T03:01:30.835Z,24.57
2019-05-21T03:04:00.209Z,26.07
2019-05-21T03:06:29.498Z,24.93
2019-05-21T03:08:58.797Z,25.60
2019-05-21T03:11:28.086Z,26.37
2019-05-21T03:13:57.390Z,25.43
2019-05-21T03:16:26.686Z,27.50
2019-05-21T03:18:55.976Z,27.43
2019-05-21T03:21:25.298Z,27.50
2019-05-21T03:23:54.620Z,28.13
2019-05-21T03:26:25.534Z,28.93
2019-05-21T03:28:55.167Z,28.83
2019-05-21T03:31:27.493Z,28.60
2019-05-21T03:33:58.403Z,30.90
2019-05-21T03:37:03.898Z,30.27
2019-05-21T03:39:45.662Z,28.37
2019-05-21T03:42:22.381Z,29.17
2019-05-21T03:45:01.196Z,29.83
2019-05-21T03:48:08.721Z,29.30
2019-05-21T03:50:56.080Z,29.57
2019-05-21T03:53:33.111Z,29.43
2019-05-21T03:56:09.471Z,29.17
2019-05-21T03:58:45.542Z,29.97
2019-05-21T04:01:18.377Z,30.07
2019-05-21T04:03:49.863Z,29.40
2019-05-21T04:06:28.550Z,30.97
2019-05-21T04:08:55.456Z,30.07
2019-05-21T04:11:25.476Z,29.37
2019-05-21T04:13:59.051Z,29.73
2019-05-21T04:16:35.624Z,29.73
2019-05-21T04:19:09.367Z,30.23
2019-05-21T04:21:39.321Z,29.20
2019-05-21T04:24:09.751Z,28.77
2019-05-21T04:26:39.886Z,29.50
2019-05-21T04:29:09.676Z,28.90
2019-05-21T04:31:39.422Z,29.63
2019-05-21T04:34:09.106Z,30.70
2019-05-21T04:36:38.844Z,29.07
2019-05-21T04:39:08.798Z,27.27
2019-05-21T04:41:38.406Z,27.57
2019-05-21T04:44:08.085Z,29.67
2019-05-21T04:46:37.782Z,28.80
2019-05-21T04:49:07.547Z,28.07
2019-05-21T04:51:37.203Z,26.17
2019-05-21T04:54:06.994Z,26.17
2019-05-21T04:56:36.617Z,26.97
2019-05-21T04:59:06.332Z,25.40
2019-05-21T05:01:35.936Z,23.20
2019-05-21T05:04:05.793Z,24.23
2019-05-21T05:06:35.413Z,23.13
2019-05-21T05:09:06.054Z,24.50
2019-05-21T05:11:35.681Z,24.07
2019-05-21T05:14:05.203Z,24.07
2019-05-21T05:16:34.868Z,23.67
2019-05-21T05:19:04.565Z,23.80
2019-05-21T05:21:34.167Z,24.53
2019-05-21T05:24:03.873Z,24.13
2019-05-21T05:26:33.476Z,23.67
2019-05-21T05:29:03.133Z,21.93
2019-05-21T05:31:32.736Z,22.77
2019-05-21T05:34:02.368Z,22.97
2019-05-21T05:36:31.821Z,22.07
2019-05-21T05:39:01.322Z,20.80
2019-05-21T05:41:32.025Z,20.43
2019-05-21T05:44:01.999Z,20.63
2019-05-21T05:46:31.671Z,20.27
2019-05-21T05:49:14.020Z,19.37
2019-05-21T05:51:43.694Z,20.27
2019-05-21T05:54:13.319Z,20.23
2019-05-21T05:56:43.069Z,18.97
2019-05-21T05:59:14.462Z,20.33
2019-05-21T06:01:43.998Z,18.77
2019-05-21T06:04:14.318Z,16.80
2019-05-21T06:06:43.904Z,19.37
2019-05-21T06:09:13.711Z,18.27
2019-05-21T06:11:43.387Z,17.73
2019-05-21T06:14:13.083Z,17.93
2019-05-21T06:16:42.807Z,17.63
2019-05-21T06:19:12.637Z,17.43
2019-05-21T06:21:42.287Z,17.33
2019-05-21T06:24:13.676Z,16.67
2019-05-21T06:26:43.667Z,16.67
2019-05-21T06:29:13.337Z,15.53
2019-05-21T06:31:43.004Z,15.77
2019-05-21T06:34:12.730Z,16.07
2019-05-21T06:36:42.367Z,15.50
2019-05-21T06:39:11.984Z,15.30
2019-05-21T06:41:41.609Z,13.57
2019-05-21T06:44:11.335Z,13.67
2019-05-21T06:46:41.079Z,14.27
2019-05-21T06:49:11.015Z,13.83
2019-05-21T06:51:40.817Z,13.83
2019-05-21T06:54:10.627Z,13.17
2019-05-21T06:56:40.209Z,14.20
2019-05-21T06:59:09.988Z,13.10
2019-05-21T07:01:39.785Z,13.27
2019-05-21T07:04:09.463Z,12.70
2019-05-21T07:06:39.387Z,14.43
2019-05-21T07:09:09.259Z,13.20
2019-05-21T07:11:39.058Z,13.23
2019-05-21T07:14:08.782Z,13.53
2019-05-21T07:16:38.490Z,12.27
2019-05-21T07:19:08.285Z,13.30
2019-05-21T07:21:38.210Z,12.27
2019-05-21T07:24:08.017Z,11.77
2019-05-21T07:26:37.927Z,12.47
2019-05-21T07:29:07.728Z,12.17
2019-05-21T07:31:37.436Z,12.43
2019-05-21T07:34:07.385Z,11.77
2019-05-21T07:36:37.242Z,11.43
2019-05-21T07:39:08.040Z,12.23
2019-05-21T07:41:37.977Z,11.30
2019-05-21T07:44:12.622Z,11.80
2019-05-21T07:47:09.279Z,12.13
2019-05-21T07:49:38.582Z,12.37
2019-05-21T07:52:08.864Z,11.23
2019-05-21T07:54:39.281Z,11.67
2019-05-21T07:57:32.049Z,11.97
2019-05-21T08:00:01.538Z,12.27
2019-05-21T08:02:31.748Z,11.30
2019-05-21T08:05:01.069Z,11.90
2019-05-21T08:07:30.490Z,11.83
2019-05-21T08:09:59.778Z,11.73
2019-05-21T08:12:38.837Z,12.10
2019-05-21T08:15:00.111Z,12.87
2019-05-21T08:17:29.547Z,11.80
2019-05-21T08:20:08.700Z,12.70
2019-05-21T08:22:30.159Z,12.10
2019-05-21T08:24:59.499Z,11.60
2019-05-21T08:27:28.806Z,11.70
2019-05-21T08:29:58.076Z,11.40
2019-05-21T08:32:27.376Z,11.80
2019-05-21T08:34:56.651Z,11.70
2019-05-21T08:37:26.017Z,11.20
2019-05-21T08:39:55.278Z,10.60
2019-05-21T08:42:24.650Z,11.53
2019-05-21T08:44:53.961Z,11.33
2019-05-21T08:47:23.284Z,10.67
2019-05-21T08:49:52.671Z,11.20
2019-05-21T08:52:22.043Z,11.00
2019-05-21T08:54:51.509Z,10.93
2019-05-21T08:57:21.016Z,10.90
2019-05-21T08:59:50.342Z,11.00
2019-05-21T09:02:19.711Z,11.13
2019-05-21T09:04:49.086Z,10.97
2019-05-21T09:07:18.463Z,10.90
2019-05-21T09:09:50.419Z,11.10
2019-05-21T09:12:18.813Z,10.73
2019-05-21T10:21:57.071Z,11.40
2019-05-21T10:24:26.574Z,12.37
2019-05-21T10:26:55.910Z,11.90
2019-05-21T10:29:25.290Z,11.43
2019-05-21T10:31:54.640Z,12.00
2019-05-21T10:34:24.068Z,12.27
2019-05-21T10:36:53.393Z,12.70
2019-05-21T10:39:22.862Z,11.93
2019-05-21T10:41:52.145Z,12.93
2019-05-21T10:44:21.439Z,13.10
2019-05-21T10:46:50.761Z,13.67
2019-05-21T10:49:20.100Z,14.33
2019-05-21T10:51:49.926Z,12.50
2019-05-21T10:54:19.298Z,11.97
2019-05-21T10:56:48.758Z,12.00
2019-05-21T10:59:18.237Z,12.37
2019-05-21T11:02:05.416Z,12.90
2019-05-21T11:04:39.416Z,12.00
2019-05-21T11:07:09.727Z,11.83
2019-05-21T11:09:39.205Z,10.97
2019-05-21T11:12:08.781Z,11.33
2019-05-21T11:14:38.123Z,11.83
2019-05-21T11:17:10.063Z,11.27
2019-05-21T11:19:40.869Z,10.33
2019-05-21T11:22:10.225Z,10.73
2019-05-21T11:24:39.622Z,11.00
2019-05-21T11:27:08.900Z,10.70
2019-05-21T11:29:38.293Z,11.03
2019-05-21T11:32:07.657Z,9.40
2019-05-21T11:34:37.017Z,10.70
2019-05-21T11:37:06.398Z,10.40
2019-05-21T11:39:35.808Z,9.97
2019-05-21T11:42:05.115Z,9.57
2019-05-21T11:44:34.423Z,10.00
2019-05-21T11:47:03.815Z,10.30
2019-05-21T11:49:33.113Z,10.87
2019-05-21T11:52:02.477Z,10.13
2019-05-21T11:54:31.934Z,9.90
2019-05-21T11:57:01.306Z,10.30
2019-05-21T11:59:30.617Z,10.40
2019-05-21T12:01:59.930Z,10.20
2019-05-21T12:04:29.188Z,10.17
2019-05-21T12:06:58.488Z,10.90
2019-05-21T12:09:27.848Z,11.00
2019-05-21T12:11:57.199Z,10.23
2019-05-21T12:14:26.497Z,10.67
2019-05-21T12:16:55.845Z,10.20
2019-05-21T22:38:46.302Z,24.43
2019-05-21T22:51:17.151Z,24.37
